Airport ICAO


18:18 UTC

15°C

Clear skies


An affordable passengers' Moving Map for your aircraft. Made for the iPad and the iPhone
More information here

LFMD Mandelieu


Cannes FRANCE   VFR CAVOK


METAR LFMD 231800Z AUTO 00000KT CAVOK 15/05 Q1022 NOSIG 0h18min

TAF LFMD 231400Z 2315/2415 15005KT CAVOK BECMG 2318/2320 35005KT BECMG 2409/2411 16010KT 4h18min





NOTAMS

OPEN